Terminal Aerodrome Forecast
Issued by NWS Northern Indiana

Home | Current Version | Previous Version | Graphics & Text | Print | Product List | Glossary On
Versions: 1 2 3 4 5 6 7 8 9 10 11 12 13
000
FTUS43 KIWX 160520
TAFFWA
TAF
KFWA 160520Z 1606/1706 29004KT P6SM BKN060
     FM161600 30008KT P6SM SCT050
     FM170100 20004KT P6SM SKC=

USA.gov is the U.S. government's official web portal to all federal, state and local government web resources and services.